Time;durP1;ratioP1;P1;durP2;ratioP2;P2;SDS_P1;SDS_P2;PMS_P1;PMS_P2;Temp;Humidity;BMP_temperature;BMP_pressure;BME280_temperature;BME280_humidity;BME280_pressure;Samples;Min_cycle;Max_cycle;Signal;HPM_P1;HPM_P2
2022/08/27 00:01:43;;;;;;;10.10;6.03;;;27.30;67.30;;;;;;5068485;28;20036;-90
2022/08/27 00:04:09;;;;;;;6.35;5.03;;;27.30;67.50;;;;;;5053451;28;20488;-89
2022/08/27 00:06:35;;;;;;;6.13;4.85;;;27.30;67.50;;;;;;5078600;28;20074;-89
2022/08/27 00:09:01;;;;;;;8.02;5.93;;;27.30;67.40;;;;;;5092754;28;20066;-91
2022/08/27 00:11:27;;;;;;;10.25;5.85;;;27.20;67.70;;;;;;5075774;28;20031;-91
2022/08/27 00:13:54;;;;;;;8.40;4.32;;;27.10;68.00;;;;;;5092536;28;20020;-91
2022/08/27 00:16:20;;;;;;;7.55;4.78;;;27.10;67.80;;;;;;5076666;28;20024;-90
2022/08/27 00:18:46;;;;;;;5.55;4.63;;;27.10;67.90;;;;;;5068035;28;20168;-90
2022/08/27 00:21:12;;;;;;;7.82;5.28;;;27.10;67.70;;;;;;5070669;28;20047;-90
2022/08/27 00:23:39;;;;;;;8.88;5.10;;;27.00;67.70;;;;;;5071329;28;20480;-90
2022/08/27 00:26:05;;;;;;;9.13;5.28;;;26.90;67.70;;;;;;5071461;28;20021;-91
2022/08/27 00:28:33;;;;;;;13.80;5.47;;;26.80;68.00;;;;;;5071322;28;20035;-91
2022/08/27 00:30:59;;;;;;;6.45;5.10;;;26.80;68.30;;;;;;5071223;28;20460;-90
2022/08/27 00:33:25;;;;;;;7.85;4.60;;;26.70;68.40;;;;;;5053149;28;20163;-92
2022/08/27 00:35:52;;;;;;;7.38;4.70;;;26.60;68.60;;;;;;5071881;28;20028;-92
2022/08/27 00:38:19;;;;;;;7.93;5.25;;;26.60;68.50;;;;;;5068971;28;20021;-91
2022/08/27 00:40:45;;;;;;;6.15;4.07;;;26.60;68.80;;;;;;5051590;28;20040;-91
2022/08/27 00:43:11;;;;;;;6.85;4.75;;;26.70;68.40;;;;;;5051369;28;20040;-89
2022/08/27 00:45:44;;;;;;;7.53;4.63;;;26.80;68.70;;;;;;5034962;28;20029;-90
2022/08/27 00:48:13;;;;;;;5.75;4.45;;;26.70;68.50;;;;;;5033464;28;20025;-90
2022/08/27 00:50:42;;;;;;;6.93;3.95;;;26.80;68.50;;;;;;5034789;28;20096;-91
2022/08/27 00:53:12;;;;;;;10.52;5.43;;;26.80;68.90;;;;;;5052202;28;20029;-90
2022/08/27 00:56:11;;;;;;;9.48;5.70;;;26.70;69.10;;;;;;5045155;28;20477;-90
2022/08/27 00:58:43;;;;;;;8.35;4.80;;;26.50;69.30;;;;;;5057146;28;20079;-90
2022/08/27 01:01:13;;;;;;;10.13;5.07;;;26.40;69.60;;;;;;5075362;28;20032;-92
2022/08/27 01:03:39;;;;;;;;;;;26.40;69.80;;;;;;5080311;28;20127;-89
2022/08/27 01:06:09;;;;;;;6.55;4.68;;;26.30;69.80;;;;;;5098518;28;19947;-90
2022/08/27 01:09:07;;;;;;;9.52;5.82;;;26.40;69.70;;;;;;5067457;28;20395;-91
2022/08/27 01:14:39;;;;;;;8.77;5.15;;;26.20;70.20;;;;;;5029055;28;20543;-90
2022/08/27 01:17:07;;;;;;;6.03;4.60;;;26.40;70.20;;;;;;5074226;28;20115;-90
2022/08/27 01:19:42;;;;;;;5.15;4.35;;;26.40;70.30;;;;;;5075404;28;20021;-92
2022/08/27 01:22:17;;;;;;;6.53;4.85;;;26.40;69.60;;;;;;5074846;28;20048;-88
2022/08/27 01:25:00;;;;;;;5.65;4.18;;;26.50;69.80;;;;;;5074454;28;20048;-90
2022/08/27 01:27:30;;;;;;;5.40;3.97;;;26.60;69.30;;;;;;5073459;28;20029;-90
2022/08/27 01:29:56;;;;;;;4.88;3.95;;;26.60;69.60;;;;;;5074678;28;20029;-91
2022/08/27 01:32:28;;;;;;;7.35;4.57;;;26.70;69.20;;;;;;5056764;28;20439;-92
2022/08/27 01:34:55;;;;;;;8.18;4.97;;;26.60;69.30;;;;;;5073510;28;20062;-91
2022/08/27 01:37:22;;;;;;;8.07;4.60;;;26.70;69.60;;;;;;5074120;28;20090;-91
2022/08/27 01:39:47;;;;;;;10.35;6.15;;;26.60;69.80;;;;;;5073832;28;20036;-91
2022/08/27 01:42:18;;;;;;;9.95;4.95;;;26.50;70.20;;;;;;5075972;28;20029;-91
2022/08/27 01:44:47;;;;;;;7.07;4.85;;;26.60;70.10;;;;;;5073176;28;20048;-90
2022/08/27 01:47:14;;;;;;;7.47;5.80;;;26.50;70.20;;;;;;5074426;28;20028;-89
2022/08/27 01:49:40;;;;;;;8.60;5.20;;;26.50;70.90;;;;;;5074219;28;20115;-90
2022/08/27 01:52:05;;;;;;;7.35;5.30;;;26.40;70.70;;;;;;5073229;28;20540;-90
2022/08/27 01:54:32;;;;;;;7.47;4.40;;;26.50;71.30;;;;;;5074684;28;20527;-90
2022/08/27 01:56:58;;;;;;;8.38;4.30;;;26.60;70.40;;;;;;5056554;28;20071;-89
2022/08/27 01:59:24;;;;;;;6.75;5.30;;;26.70;70.40;;;;;;5057143;28;20055;-89
2022/08/27 02:01:50;;;;;;;7.75;4.60;;;26.80;70.40;;;;;;5074087;28;20033;-90
2022/08/27 02:04:16;;;;;;;9.32;5.35;;;26.90;70.30;;;;;;5054135;28;20032;-92
2022/08/27 02:06:42;;;;;;;8.13;4.88;;;26.90;70.10;;;;;;5081155;28;20487;-90
2022/08/27 02:09:08;;;;;;;6.93;4.97;;;27.00;70.10;;;;;;5072305;28;20017;-91
2022/08/27 02:11:33;;;;;;;13.48;6.68;;;27.00;69.90;;;;;;5073877;28;20036;-91
2022/08/27 02:13:59;;;;;;;9.48;5.15;;;27.00;70.50;;;;;;5074014;28;20021;-90
2022/08/27 02:16:24;;;;;;;9.63;5.30;;;27.00;70.10;;;;;;5072094;28;20088;-90
2022/08/27 02:18:53;;;;;;;8.70;4.75;;;26.90;70.30;;;;;;5071446;28;20021;-91
2022/08/27 02:21:19;;;;;;;7.55;5.00;;;27.00;70.20;;;;;;5057018;28;20507;-91
2022/08/27 02:23:44;;;;;;;8.52;4.68;;;27.00;70.30;;;;;;5073221;28;20044;-91
2022/08/27 02:26:10;;;;;;;9.13;4.78;;;27.00;70.20;;;;;;5074380;28;20373;-91
2022/08/27 02:28:36;;;;;;;7.55;4.95;;;27.10;70.20;;;;;;5073653;28;20060;-90
2022/08/27 02:31:03;;;;;;;9.98;5.55;;;27.10;70.10;;;;;;5056207;28;20112;-90
2022/08/27 02:33:31;;;;;;;7.43;4.82;;;27.20;70.10;;;;;;5073948;28;20020;-90
2022/08/27 02:35:57;;;;;;;7.88;5.30;;;27.10;69.80;;;;;;5056068;28;20029;-90
2022/08/27 02:38:23;;;;;;;7.35;4.82;;;27.20;70.00;;;;;;5073370;28;20552;-90
2022/08/27 02:40:49;;;;;;;7.55;5.30;;;27.20;70.20;;;;;;5074315;28;20028;-91
2022/08/27 02:43:14;;;;;;;7.03;5.13;;;27.20;70.10;;;;;;5056853;28;20481;-90
2022/08/27 02:45:41;;;;;;;5.25;4.45;;;27.20;70.00;;;;;;5073413;28;20036;-90
2022/08/27 02:48:06;;;;;;;11.38;5.53;;;27.20;70.10;;;;;;5074026;28;20016;-90
2022/08/27 02:50:33;;;;;;;7.05;5.57;;;27.20;70.20;;;;;;5056438;28;20032;-91
2022/08/27 02:53:04;;;;;;;5.55;4.72;;;27.20;70.00;;;;;;5062670;28;20024;-89
2022/08/27 02:55:31;;;;;;;9.80;5.80;;;27.10;70.00;;;;;;5072383;28;20032;-91
2022/08/27 02:57:58;;;;;;;5.78;5.07;;;27.10;70.10;;;;;;5072136;28;20028;-91
2022/08/27 03:00:27;;;;;;;7.18;5.32;;;27.00;69.90;;;;;;5073512;28;20028;-90
2022/08/27 03:02:53;;;;;;;7.00;5.22;;;27.00;70.00;;;;;;5073203;28;20043;-91
2022/08/27 03:05:19;;;;;;;7.85;5.22;;;27.00;70.00;;;;;;5072931;28;20104;-90
2022/08/27 03:07:44;;;;;;;5.80;4.75;;;26.90;70.10;;;;;;5070880;28;20060;-90
2022/08/27 03:10:13;;;;;;;5.75;4.85;;;26.80;70.20;;;;;;5072842;28;20361;-90
2022/08/27 03:12:40;;;;;;;6.45;4.53;;;26.80;70.20;;;;;;5071256;28;20066;-91
2022/08/27 03:15:08;;;;;;;7.20;4.85;;;26.90;70.20;;;;;;5072642;28;20479;-90
2022/08/27 03:20:18;;;;;;;5.65;4.25;;;27.00;70.00;;;;;;5072700;28;20040;-89
2022/08/27 03:22:45;;;;;;;5.75;4.68;;;27.00;69.60;;;;;;5054820;28;20418;-90
2022/08/27 03:25:10;;;;;;;6.30;4.28;;;27.10;69.70;;;;;;5073554;28;20036;-91
2022/08/27 03:27:37;;;;;;;7.38;4.18;;;27.20;69.60;;;;;;5072288;28;20074;-90
2022/08/27 03:30:09;;;;;;;8.90;5.05;;;27.20;69.40;;;;;;5072403;28;20380;-90
2022/08/27 03:32:35;;;;;;;8.00;4.32;;;27.20;69.20;;;;;;5071638;28;20103;-90
2022/08/27 03:35:01;;;;;;;4.80;4.00;;;27.20;69.10;;;;;;5087431;28;20066;-89
2022/08/27 03:37:27;;;;;;;6.90;4.20;;;27.20;69.20;;;;;;5074414;28;20028;-91
2022/08/27 03:39:53;;;;;;;5.80;4.13;;;27.20;69.20;;;;;;5059573;28;20077;-90
2022/08/27 03:42:20;;;;;;;6.65;3.92;;;27.20;69.00;;;;;;5060045;28;20040;-92
2022/08/27 03:44:45;;;;;;;5.38;4.28;;;27.20;68.80;;;;;;5071225;28;20036;-89
2022/08/27 03:47:11;;;;;;;6.07;4.53;;;27.20;68.80;;;;;;5051560;28;20025;-91
2022/08/27 03:49:37;;;;;;;6.65;4.70;;;27.20;69.00;;;;;;5073656;28;20060;-90
2022/08/27 03:52:03;;;;;;;5.82;3.88;;;27.20;69.00;;;;;;5069290;28;20020;-91
2022/08/27 03:54:30;;;;;;;8.82;4.65;;;27.20;68.80;;;;;;5072179;28;20473;-88
2022/08/27 03:56:58;;;;;;;4.97;4.18;;;27.20;68.60;;;;;;5071842;28;20044;-91
2022/08/27 03:59:23;;;;;;;6.47;4.03;;;27.20;68.30;;;;;;5071298;28;20166;-91
2022/08/27 04:01:49;;;;;;;6.28;4.53;;;27.10;68.30;;;;;;5053418;28;20435;-91
2022/08/27 04:04:15;;;;;;;9.20;4.57;;;27.00;68.30;;;;;;5053871;28;20028;-90
2022/08/27 04:06:41;;;;;;;7.05;4.43;;;26.90;68.60;;;;;;5086189;28;20391;-91
2022/08/27 04:09:06;;;;;;;5.57;4.10;;;26.90;68.60;;;;;;5074864;28;20035;-90
2022/08/27 04:11:35;;;;;;;4.45;3.70;;;26.80;68.80;;;;;;5075457;28;20084;-91
2022/08/27 04:14:05;;;;;;;8.40;3.85;;;26.80;68.80;;;;;;5071018;28;20074;-92
2022/08/27 04:16:32;;;;;;;4.72;3.17;;;26.80;68.90;;;;;;5071403;28;20036;-93
2022/08/27 04:18:58;;;;;;;7.65;4.55;;;26.80;68.90;;;;;;5072254;28;20423;-90
2022/08/27 04:21:24;;;;;;;6.20;4.00;;;26.80;69.00;;;;;;5070867;28;20024;-90
2022/08/27 04:23:50;;;;;;;9.25;5.88;;;26.80;69.10;;;;;;5071500;28;20045;-91
2022/08/27 04:26:16;;;;;;;11.00;4.55;;;26.60;70.40;;;;;;5070971;28;20035;-90
2022/08/27 04:28:41;;;;;;;5.63;4.90;;;26.60;70.70;;;;;;5053589;28;20036;-91
2022/08/27 04:31:08;;;;;;;8.23;4.78;;;26.50;71.70;;;;;;5073483;28;20025;-90
2022/08/27 04:33:34;;;;;;;5.00;4.18;;;26.40;71.10;;;;;;5075090;28;20388;-91
2022/08/27 04:36:01;;;;;;;5.70;4.05;;;26.50;71.10;;;;;;5075452;28;20025;-89
2022/08/27 04:38:27;;;;;;;7.85;5.22;;;26.50;71.10;;;;;;5075262;28;20496;-90
2022/08/27 04:43:37;;;;;;;5.07;3.92;;;26.40;71.20;;;;;;5077268;28;20063;-90
2022/08/27 04:46:03;;;;;;;7.53;4.43;;;26.00;71.10;;;;;;5076304;28;20017;-91
2022/08/27 04:48:29;;;;;;;4.13;3.72;;;26.40;71.20;;;;;;5058210;28;20060;-91
2022/08/27 04:50:55;;;;;;;6.55;4.47;;;26.30;71.30;;;;;;5077244;28;20028;-91
2022/08/27 04:53:21;;;;;;;5.40;4.43;;;26.20;71.00;;;;;;5068054;28;20435;-91
2022/08/27 04:55:50;;;;;;;4.43;3.85;;;26.20;71.30;;;;;;5074095;28;20082;-92
2022/08/27 04:58:19;;;;;;;4.43;3.85;;;26.20;71.00;;;;;;5075678;28;20531;-90
2022/08/27 05:00:53;;;;;;;5.53;3.60;;;26.20;71.00;;;;;;5074170;28;20075;-91
2022/08/27 05:03:22;;;;;;;4.43;3.65;;;26.20;70.90;;;;;;5074465;28;20064;-92
2022/08/27 05:05:49;;;;;;;8.50;4.45;;;26.30;70.80;;;;;;5075191;28;20040;-89
2022/08/27 05:08:16;;;;;;;6.30;4.30;;;26.30;70.90;;;;;;5056572;28;20543;-91
2022/08/27 05:10:51;;;;;;;7.15;3.85;;;26.20;71.10;;;;;;5069165;28;20451;-90
2022/08/27 05:13:19;;;;;;;7.15;3.83;;;26.30;71.00;;;;;;5071608;28;20090;-91
2022/08/27 05:15:46;;;;;;;5.93;4.15;;;26.30;70.90;;;;;;5081530;28;20379;-90
2022/08/27 05:18:12;;;;;;;7.88;4.60;;;26.30;71.00;;;;;;5076696;28;20438;-90
2022/08/27 05:20:57;;;;;;;15.30;5.60;;;26.20;71.00;;;;;;5054943;28;20040;-90
2022/08/27 05:23:23;;;;;;;7.78;4.60;;;26.10;71.00;;;;;;5070682;28;20066;-90
2022/08/27 05:25:51;;;;;;;8.30;4.15;;;26.00;70.90;;;;;;5056086;28;20439;-90
2022/08/27 05:28:20;;;;;;;7.60;4.38;;;26.10;70.80;;;;;;5052442;28;20024;-91
2022/08/27 05:30:48;;;;;;;5.80;3.30;;;26.00;70.80;;;;;;5055015;28;20388;-90
2022/08/27 05:33:16;;;;;;;8.52;4.05;;;26.10;70.70;;;;;;5087847;22;20302;-83
2022/08/27 05:35:44;;;;;;;5.53;3.78;;;26.00;70.50;;;;;;5076845;28;20157;-83
2022/08/27 05:38:11;;;;;;;4.20;3.13;;;26.10;70.40;;;;;;5092003;28;20020;-83
2022/08/27 05:40:38;;;;;;;6.40;4.00;;;26.10;70.20;;;;;;5093575;28;20660;-84
2022/08/27 05:43:04;;;;;;;7.00;4.30;;;26.00;69.70;;;;;;5077139;28;20069;-83
2022/08/27 05:45:30;;;;;;;6.72;3.78;;;26.00;69.90;;;;;;5094490;28;20032;-84
2022/08/27 05:47:57;;;;;;;7.07;4.15;;;26.00;69.80;;;;;;5073954;28;20082;-86
2022/08/27 05:50:24;;;;;;;7.22;3.78;;;25.90;69.90;;;;;;5094329;28;20082;-85
2022/08/27 05:52:50;;;;;;;6.47;3.58;;;26.00;70.10;;;;;;5094879;28;20036;-85
2022/08/27 05:55:16;;;;;;;5.78;3.75;;;25.90;69.90;;;;;;5094755;28;20027;-84
2022/08/27 05:57:42;;;;;;;5.50;3.80;;;26.10;69.90;;;;;;5093704;28;20111;-84
2022/08/27 06:02:52;;;;;;;6.30;4.10;;;26.20;69.50;;;;;;5092286;28;20125;-84
2022/08/27 06:05:18;;;;;;;6.38;3.78;;;26.20;69.50;;;;;;5073255;28;20431;-84
2022/08/27 06:07:44;;;;;;;4.60;3.65;;;26.20;69.40;;;;;;5091164;28;20110;-87
2022/08/27 06:10:11;;;;;;;5.65;4.05;;;26.20;69.30;;;;;;5093017;28;20557;-85
2022/08/27 06:12:37;;;;;;;13.32;4.78;;;26.30;69.60;;;;;;5094180;28;20423;-83
2022/08/27 06:15:03;;;;;;;11.52;4.55;;;26.40;69.30;;;;;;5094080;28;20031;-83
2022/08/27 06:17:29;;;;;;;7.28;4.40;;;26.40;69.70;;;;;;5084159;28;20662;-83
2022/08/27 06:19:55;;;;;;;5.28;3.72;;;26.30;70.20;;;;;;5092946;28;20120;-83
2022/08/27 06:22:21;;;;;;;4.40;3.72;;;26.40;69.90;;;;;;5084573;28;20037;-84
2022/08/27 06:24:47;;;;;;;7.15;4.32;;;26.50;70.00;;;;;;5086923;28;20158;-89
2022/08/27 06:27:15;;;;;;;6.97;3.97;;;26.60;70.60;;;;;;5076487;28;20623;-88
2022/08/27 06:29:42;;;;;;;10.82;4.47;;;26.60;70.10;;;;;;5091674;28;20031;-85
2022/08/27 06:32:09;;;;;;;7.43;5.20;;;26.80;70.30;;;;;;5092618;28;20032;-84
2022/08/27 06:34:36;;;;;;;8.60;5.25;;;26.80;71.20;;;;;;5092670;28;20062;-85
2022/08/27 06:37:03;;;;;;;14.27;5.57;;;26.80;71.00;;;;;;5093270;28;20495;-86
2022/08/27 06:39:30;;;;;;;9.45;6.03;;;26.70;71.40;;;;;;5085992;28;20251;-85
2022/08/27 06:41:56;;;;;;;8.82;5.50;;;26.70;71.60;;;;;;5071319;28;20751;-84
2022/08/27 06:44:23;;;;;;;15.35;5.45;;;26.70;71.80;;;;;;5090974;28;20383;-85
2022/08/27 06:46:50;;;;;;;8.85;4.80;;;26.70;71.80;;;;;;5075375;28;20134;-84
2022/08/27 06:49:19;;;;;;;8.27;5.28;;;26.80;71.40;;;;;;5090160;28;20024;-87
2022/08/27 06:51:46;;;;;;;7.97;4.05;;;26.80;71.50;;;;;;5093538;28;21807;-86
2022/08/27 06:54:14;;;;;;;5.65;4.15;;;26.90;71.60;;;;;;5075658;28;20032;-90
2022/08/27 06:56:41;;;;;;;7.65;4.72;;;27.00;71.70;;;;;;5089708;28;20514;-88
2022/08/27 06:59:10;;;;;;;11.57;5.40;;;27.10;71.60;;;;;;5094344;28;20032;-86
2022/08/27 07:01:40;;;;;;;8.48;5.05;;;27.10;71.60;;;;;;5075517;28;20055;-88
2022/08/27 07:04:09;;;;;;;12.30;5.97;;;27.10;71.10;;;;;;5101746;28;20054;-87
2022/08/27 07:06:36;;;;;;;9.45;5.63;;;27.00;71.20;;;;;;5092600;28;20020;-84
2022/08/27 07:09:03;;;;;;;10.00;5.10;;;26.90;71.60;;;;;;5095563;28;20721;-84
2022/08/27 07:11:31;;;;;;;9.25;4.35;;;26.80;71.90;;;;;;5093880;28;20462;-86
2022/08/27 07:13:57;;;;;;;8.43;4.32;;;26.80;71.70;;;;;;5068471;28;20464;-88
2022/08/27 07:16:25;;;;;;;7.30;4.43;;;26.90;71.60;;;;;;5092624;28;20746;-91
2022/08/27 07:18:54;;;;;;;6.30;4.22;;;26.90;71.70;;;;;;5094072;28;20039;-90
2022/08/27 07:21:20;;;;;;;6.63;4.30;;;27.00;71.10;;;;;;5094826;28;20024;-91
2022/08/27 07:23:47;;;;;;;6.93;4.50;;;27.00;70.90;;;;;;5085078;28;20147;-88
2022/08/27 07:26:15;;;;;;;6.97;4.45;;;27.00;70.20;;;;;;5089868;28;20479;-86
2022/08/27 07:28:43;;;;;;;7.00;4.13;;;27.00;69.90;;;;;;5075138;28;20484;-86
2022/08/27 07:31:11;;;;;;;11.98;4.50;;;27.00;70.00;;;;;;5093211;28;20020;-85
2022/08/27 07:33:42;;;;;;;6.80;4.03;;;27.00;69.40;;;;;;5073458;28;20078;-88
2022/08/27 07:36:08;;;;;;;8.18;4.97;;;26.90;69.40;;;;;;5075083;28;20074;-89
2022/08/27 07:38:35;;;;;;;6.00;4.53;;;26.90;69.40;;;;;;5075764;28;20024;-88
2022/08/27 07:41:10;;;;;;;9.30;5.18;;;26.90;69.60;;;;;;5092606;28;20066;-87
2022/08/27 07:46:22;;;;;;;4.32;3.30;;;26.80;69.50;;;;;;5093624;28;20059;-88
2022/08/27 07:48:48;;;;;;;7.45;4.20;;;27.00;69.70;;;;;;5100987;28;20032;-90
2022/08/27 07:51:16;;;;;;;8.07;4.68;;;27.20;69.70;;;;;;5073264;28;20029;-88
2022/08/27 07:53:43;;;;;;;6.63;4.40;;;27.30;69.20;;;;;;5085104;28;20028;-89
2022/08/27 07:56:26;;;;;;;7.15;4.65;;;27.40;68.90;;;;;;5074713;28;20068;-89
2022/08/27 07:58:53;;;;;;;7.28;4.43;;;27.40;68.90;;;;;;5064690;28;20651;-90
2022/08/27 08:01:18;;;;;;;8.93;4.32;;;27.40;69.40;;;;;;5092298;28;20099;-89
2022/08/27 08:03:44;;;;;;;8.70;4.65;;;27.50;69.40;;;;;;5075354;28;20020;-88
2022/08/27 08:06:14;;;;;;;8.95;5.13;;;27.50;68.80;;;;;;5075163;28;20024;-89
2022/08/27 08:08:40;;;;;;;8.43;4.68;;;27.50;69.10;;;;;;5075214;28;20190;-89
2022/08/27 08:11:08;;;;;;;5.50;4.25;;;27.50;69.60;;;;;;5093405;28;20031;-91
2022/08/27 08:13:34;;;;;;;10.15;4.65;;;27.60;69.30;;;;;;5076460;28;20035;-92
2022/08/27 08:16:00;;;;;;;113.00;100.72;;;27.60;68.70;;;;;;5091480;28;20029;-92
2022/08/27 08:18:49;;;;;;;78.35;69.70;;;27.70;69.00;;;;;;5074759;28;20039;-92
2022/08/27 08:21:14;;;;;;;213.95;192.45;;;27.80;69.20;;;;;;5079688;28;20040;-92
2022/08/27 08:23:41;;;;;;;18.70;16.38;;;27.90;69.10;;;;;;5092846;28;20032;-91
2022/08/27 08:26:08;;;;;;;7.22;5.45;;;28.00;68.80;;;;;;5068820;28;20047;-89
2022/08/27 08:28:35;;;;;;;5.38;4.38;;;28.10;68.60;;;;;;5093050;28;20483;-90
2022/08/27 08:31:01;;;;;;;6.53;4.25;;;28.20;68.50;;;;;;5092697;28;20023;-91
2022/08/27 08:33:30;;;;;;;7.68;4.85;;;28.20;68.00;;;;;;5092691;28;20047;-87
2022/08/27 08:36:05;;;;;;;6.65;4.20;;;28.30;67.90;;;;;;5100363;28;20027;-89
2022/08/27 08:38:31;;;;;;;4.35;3.90;;;28.40;67.80;;;;;;5113838;28;20024;-90
2022/08/27 08:40:57;;;;;;;9.82;4.15;;;28.40;67.80;;;;;;5091858;28;20035;-91
2022/08/27 08:43:41;;;;;;;9.20;4.20;;;28.50;66.00;;;;;;5093053;28;20546;-90
2022/08/27 08:46:19;;;;;;;9.20;5.25;;;28.60;65.50;;;;;;5092984;28;20020;-87
2022/08/27 08:48:48;;;;;;;6.43;4.15;;;28.60;65.60;;;;;;5071517;28;20513;-89
2022/08/27 08:51:20;;;;;;;9.95;3.67;;;28.70;65.60;;;;;;5073747;28;20035;-89
2022/08/27 08:54:01;;;;;;;8.45;4.53;;;28.80;65.80;;;;;;5092308;28;20024;-88
2022/08/27 08:56:56;;;;;;;6.10;4.18;;;28.90;65.50;;;;;;5066005;28;20025;-88
2022/08/27 08:59:30;;;;;;;11.30;5.30;;;29.00;65.30;;;;;;5088051;28;20094;-88
2022/08/27 09:01:59;;;;;;;6.38;3.30;;;29.00;64.80;;;;;;5092008;28;20035;-89
2022/08/27 09:04:26;;;;;;;5.90;3.70;;;29.10;64.60;;;;;;5071131;28;20021;-92
2022/08/27 09:07:01;;;;;;;5.35;3.80;;;29.30;64.40;;;;;;5088302;28;20024;-93
2022/08/27 09:09:38;;;;;;;9.52;4.18;;;29.40;64.50;;;;;;5091202;28;20402;-92
2022/08/27 09:12:21;;;;;;;8.18;3.50;;;29.50;62.50;;;;;;5091355;28;20107;-93
2022/08/27 09:15:07;;;;;;;10.95;4.50;;;29.60;62.80;;;;;;5093024;28;20021;-93
2022/08/27 09:17:34;;;;;;;5.43;3.40;;;29.60;60.40;;;;;;5073517;28;20037;-93
2022/08/27 09:19:59;;;;;;;8.88;4.50;;;29.60;61.40;;;;;;5075678;28;20024;-92
2022/08/27 09:22:47;;;;;;;4.88;3.35;;;29.80;60.50;;;;;;5075744;28;20028;-92
2022/08/27 09:25:25;;;;;;;6.03;3.50;;;29.90;61.10;;;;;;5075991;28;20012;-93
2022/08/27 09:27:53;;;;;;;10.05;4.22;;;30.00;61.60;;;;;;5075080;28;20020;-94
2022/08/27 09:30:26;;;;;;;4.70;3.80;;;30.10;60.50;;;;;;5075388;28;20031;-93
2022/08/27 09:32:59;;;;;;;5.10;3.33;;;30.10;60.50;;;;;;5075577;28;20530;-93
2022/08/27 09:35:27;;;;;;;6.97;4.00;;;30.30;60.90;;;;;;5075642;28;20028;-92
2022/08/27 09:37:56;;;;;;;11.18;4.55;;;30.30;60.50;;;;;;5057729;28;20088;-93
2022/08/27 09:40:30;;;;;;;3.60;3.15;;;30.30;60.20;;;;;;5075211;28;20028;-92
2022/08/27 09:43:05;;;;;;;6.00;3.60;;;30.40;60.60;;;;;;5056479;28;20033;-92
2022/08/27 09:45:30;;;;;;;9.52;4.35;;;30.50;60.90;;;;;;5072038;28;20567;-91
2022/08/27 09:48:06;;;;;;;5.38;3.78;;;30.50;59.90;;;;;;5095955;28;20099;-92
2022/08/27 09:50:37;;;;;;;11.20;3.78;;;30.60;60.30;;;;;;5077827;28;20055;-93
2022/08/27 09:53:03;;;;;;;5.93;3.78;;;30.70;60.50;;;;;;5095723;28;20082;-94
2022/08/27 09:55:43;;;;;;;8.40;3.97;;;30.80;59.80;;;;;;5093061;28;20077;-92
2022/08/27 09:58:22;;;;;;;8.40;3.60;;;30.90;59.40;;;;;;5095029;28;20050;-95
2022/08/27 10:01:15;;;;;;;6.25;3.40;;;31.00;59.50;;;;;;5095301;28;20024;-93
2022/08/27 10:03:42;;;;;;;6.85;4.20;;;31.20;59.60;;;;;;5094908;28;20525;-93
2022/08/27 10:06:09;;;;;;;9.05;4.03;;;31.20;58.80;;;;;;5094781;28;20500;-94
2022/08/27 10:08:46;;;;;;;5.82;3.28;;;31.30;58.90;;;;;;5095110;28;20070;-93
2022/08/27 10:11:24;;;;;;;5.45;3.63;;;31.30;58.10;;;;;;5076577;28;20093;-94
2022/08/27 10:14:18;;;;;;;10.98;5.13;;;31.40;58.40;;;;;;5097755;28;20027;-93
2022/08/27 10:16:55;;;;;;;6.10;3.33;;;31.30;57.80;;;;;;5103862;28;20032;-93
2022/08/27 10:19:29;;;;;;;6.93;4.22;;;31.40;58.20;;;;;;5092992;28;20028;-94
2022/08/27 10:22:19;;;;;;;8.38;3.50;;;31.30;57.90;;;;;;5095246;28;20024;-95
2022/08/27 10:25:12;;;;;;;4.22;3.60;;;31.40;58.10;;;;;;5095236;28;20111;-95
2022/08/27 10:27:48;;;;;;;8.15;3.78;;;31.40;57.60;;;;;;5095142;28;20024;-93
2022/08/27 10:30:18;;;;;;;4.20;2.83;;;31.40;57.40;;;;;;5076905;28;20024;-93
2022/08/27 10:33:13;;;;;;;7.80;3.80;;;31.50;57.40;;;;;;5095083;28;20082;-94
2022/08/27 10:35:48;;;;;;;10.23;3.70;;;31.80;56.80;;;;;;5095259;28;20111;-93
2022/08/27 10:38:27;;;;;;;7.18;4.10;;;32.00;56.90;;;;;;5095381;28;20140;-94
2022/08/27 10:41:11;;;;;;;7.50;4.05;;;32.00;55.20;;;;;;5095023;28;20039;-94
2022/08/27 10:44:01;;;;;;;10.88;4.43;;;31.90;55.10;;;;;;5093747;28;20040;-93
2022/08/27 10:46:29;;;;;;;;;;;32.10;55.90;;;;;;5095688;28;20066;-94
2022/08/27 10:49:37;;;;;;;6.45;3.50;;;32.40;56.60;;;;;;5076779;28;19946;-94
2022/08/27 10:52:17;;;;;;;5.78;4.32;;;32.60;53.90;;;;;;5060773;28;20032;-95
2022/08/27 10:54:51;;;;;;;6.63;4.25;;;33.00;55.70;;;;;;5074779;28;20021;-95
2022/08/27 10:57:35;;;;;;;7.18;3.83;;;33.10;54.60;;;;;;5074864;28;20075;-96
2022/08/27 11:00:10;;;;;;;6.53;4.30;;;33.20;54.30;;;;;;5056641;28;20353;-95
2022/08/27 11:02:46;;;;;;;10.05;4.75;;;33.10;52.90;;;;;;5057196;28;20024;-93
2022/08/27 11:05:19;;;;;;;8.77;4.15;;;33.00;53.10;;;;;;5074264;28;20067;-93
2022/08/27 11:07:57;;;;;;;11.70;4.47;;;33.00;53.80;;;;;;5074293;28;20033;-90
2022/08/27 11:10:26;;;;;;;7.20;4.72;;;33.10;54.00;;;;;;5074034;28;20052;-90
2022/08/27 11:12:57;;;;;;;6.45;4.10;;;33.20;52.10;;;;;;5056363;28;20082;-92
2022/08/27 11:15:34;;;;;;;6.80;4.07;;;33.30;53.40;;;;;;5080909;28;20028;-90
2022/08/27 11:18:30;;;;;;;7.22;4.22;;;33.60;53.70;;;;;;5094270;28;20576;-93
2022/08/27 11:21:12;;;;;;;9.48;4.53;;;33.90;53.70;;;;;;5094855;28;20357;-96
2022/08/27 11:23:52;;;;;;;5.15;3.50;;;34.00;52.30;;;;;;5077033;28;20036;-91
2022/08/27 11:26:19;;;;;;;13.85;4.78;;;33.90;52.80;;;;;;5077073;28;20054;-92
2022/08/27 11:28:59;;;;;;;9.98;4.72;;;33.70;52.50;;;;;;5094385;28;20140;-93
2022/08/27 11:31:42;;;;;;;11.68;3.90;;;33.40;52.80;;;;;;5094853;28;20052;-90
2022/08/27 11:34:23;;;;;;;7.05;3.65;;;33.10;53.70;;;;;;5077152;28;20040;-93
2022/08/27 11:37:01;;;;;;;7.90;4.55;;;33.00;54.20;;;;;;5094945;28;20476;-93
2022/08/27 11:39:45;;;;;;;9.52;4.50;;;32.90;53.60;;;;;;5094166;28;20108;-93
2022/08/27 11:42:26;;;;;;;8.23;4.25;;;32.70;54.10;;;;;;5093622;28;20028;-90
2022/08/27 11:44:57;;;;;;;6.55;4.25;;;32.60;54.70;;;;;;5093319;28;20024;-88
2022/08/27 11:47:25;;;;;;;7.30;3.58;;;32.50;54.70;;;;;;5075470;28;20035;-90
2022/08/27 11:49:52;;;;;;;6.93;4.07;;;32.40;54.90;;;;;;5094332;28;20020;-91
2022/08/27 11:52:31;;;;;;;7.85;4.75;;;32.30;55.10;;;;;;5093735;28;20028;-93
2022/08/27 11:55:18;;;;;;;17.13;5.40;;;32.30;55.40;;;;;;5093733;28;20026;-90
2022/08/27 11:57:44;;;;;;;18.08;5.65;;;32.10;54.60;;;;;;5093551;28;20028;-90
2022/08/27 12:00:26;;;;;;;6.55;4.13;;;31.40;55.00;;;;;;5093854;28;20032;-91
2022/08/27 12:03:03;;;;;;;7.93;4.25;;;31.00;54.80;;;;;;5093600;28;20028;-91
2022/08/27 12:05:35;;;;;;;9.95;4.32;;;30.60;56.10;;;;;;5092779;28;20020;-86
2022/08/27 12:08:26;;;;;;;13.02;4.53;;;30.20;56.10;;;;;;5092800;28;20032;-84
2022/08/27 12:11:12;;;;;;;6.88;4.53;;;29.80;57.60;;;;;;5093247;28;20064;-86
2022/08/27 12:13:57;;;;;;;14.68;4.10;;;29.90;58.00;;;;;;5093389;28;20142;-94
2022/08/27 12:16:23;;;;;;;11.13;4.68;;;30.00;58.60;;;;;;5093672;28;20051;-95
2022/08/27 12:19:04;;;;;;;10.57;4.20;;;30.50;57.70;;;;;;5091595;28;20074;-95
2022/08/27 12:21:45;;;;;;;8.13;4.50;;;30.80;56.60;;;;;;5092318;28;20032;-93
2022/08/27 12:24:39;;;;;;;8.32;4.10;;;30.60;54.90;;;;;;5093264;28;20376;-83
2022/08/27 12:27:30;;;;;;;10.23;3.92;;;30.70;55.30;;;;;;5093388;28;20031;-94
2022/08/27 12:30:18;;;;;;;4.55;3.50;;;30.80;54.00;;;;;;5093745;28;20093;-95
2022/08/27 12:32:45;;;;;;;6.60;3.60;;;31.30;53.70;;;;;;5093519;28;20066;-95
2022/08/27 12:35:16;;;;;;;5.07;3.63;;;31.50;52.50;;;;;;5093684;28;20051;-93
2022/08/27 12:37:46;;;;;;;6.03;3.00;;;31.50;52.00;;;;;;5093734;28;20028;-96
2022/08/27 12:40:45;;;;;;;21.15;3.85;;;31.80;51.10;;;;;;5075360;28;20038;-95
2022/08/27 12:43:13;;;;;;;6.15;3.22;;;32.30;50.60;;;;;;5093554;28;20391;-96
2022/08/27 12:45:52;;;;;;;12.52;3.60;;;32.40;50.40;;;;;;5093106;28;20057;-94
2022/08/27 12:48:23;;;;;;;7.70;3.63;;;31.10;50.30;;;;;;5093440;28;20100;-95
2022/08/27 12:51:12;;;;;;;4.40;2.95;;;31.10;51.30;;;;;;5093205;28;20028;-94
2022/08/27 12:54:07;;;;;;;4.27;1.97;;;31.60;51.50;;;;;;5097436;28;20048;-94
2022/08/27 12:57:16;;;;;;;10.00;3.10;;;31.50;51.30;;;;;;5096856;28;20096;-86
2022/08/27 12:59:45;;;;;;;7.00;2.30;;;31.00;51.70;;;;;;5056387;28;20064;-86
2022/08/27 13:02:32;;;;;;;5.63;2.60;;;30.20;52.40;;;;;;5096465;28;20024;-85
2022/08/27 13:05:04;;;;;;;19.40;2.60;;;30.10;53.60;;;;;;5096582;28;20052;-86
2022/08/27 13:07:32;;;;;;;2.90;2.38;;;30.10;52.90;;;;;;5096322;28;20081;-86
2022/08/27 13:10:29;;;;;;;7.00;2.67;;;29.80;53.20;;;;;;5095667;28;20077;-85
2022/08/27 13:13:12;;;;;;;9.10;3.05;;;29.70;54.20;;;;;;5042010;28;20047;-86
2022/08/27 13:15:47;;;;;;;5.32;2.67;;;29.70;53.60;;;;;;5075883;28;20036;-85
2022/08/27 13:18:14;;;;;;;7.53;2.42;;;29.90;53.60;;;;;;5075691;28;20028;-85
2022/08/27 13:20:41;;;;;;;7.05;2.33;;;30.10;52.50;;;;;;5075618;28;20098;-86